Portada
METAR-TAF:

METAR-TAF

Aeroports :

Montego Bay, Jamaica

latitud: 18-30N, longitud: 077-55W, altitud: 1 m

Observació

L'informe es va fer fa 37 minuts, a les 04:00 UTC
Vent 3 kt del Sud
Temperatura 27°C
Humitat 66%
Pressió 1017 hPa
Visibilitat 10 km o més
Escasses núvols a una alçada de 2200 ft

METAR: MKJS 300400Z 18003KT 9999 FEW022 27/20 Q1017

Hora: 23:37 (04:37 UTC)

Pronòstic

L'informe es va fer fa 5 hores i 22 minuts, a les 23:15 UTC
Pronòstic vàlid del 30 a les 00 UTC al 30 a les 24 UTC
Vent 7 kt del Est/Sud-Est
Visibilitat 10 km o més
Escasses núvols a una alçada de 2200 ft
Evolucionant progressivament
l' 30 a les 13 UTC al 30 a les 15 UTC
Vent 12 kt del Est/Nord-Est
Temporalment
l' 30 a les 20 UTC al 30 a les 24 UTC
Visibilitat: 5000 m
Núvols disperses a una alçada de 1800 ft
Núvols disperses a una alçada de 3200 ft
xàfecs de pluja

TAF: MKJS 292315Z 3000/3024 12007KT 9999 FEW022 BECMG 3013/3015 06012KT TEMPO 3020/3024 5000 SHRA SCT018 SCT032

Observacions i pronòstics meteorològics de més de 4000 aeroports (METAR i TAF).

Les estacions disponibles són els punts grocs i vermells al mapa.

Posi el ratolí al punt desitjat per veure el nom de l'estació.

Feu clic per veure les observacions i els pronòstics meteorològics.

Per canviar el mapa: feu clic els botons verds amb una creu de color negre per apropar; al botó verd amb un guió per allunyar la imatge; o en les fletxes verdes per a mapes adjacents.


METAR-TAF: